CheckWX is a tool to help pilots better visualize weather data.  It is not intended as a substitute for an official pre-flight weather briefing.

14:49:38 UTC

EGJJ TAF
Jersey Airport
Saint Helier, Jersey
TAF EGJJ 231403Z 2315/2324 05010KT 9999 FEW020 SCT030 BECMG 2317/2319 7000 PROB30 TEMPO 2321/2324 4000 BR BKN006

Mar-23@
15:00 UTC

Mar-23 @ 15:00 UTC

Mar-23@
17:00 UTC

Mar-23 @ 17:00 UTC

TAF EGJJ 231403Z 2315/2324 05010KT 9999 FEW020 SCT030
Wind
  • 050° at 10 KTS
Cloud Levels
  • Few at 2,000' AGL
  • Scattered at 3,000' AGL

Mar-23@
17:00 UTC

Mar-23 @ 17:00 UTC

Mar-24@
00:00 UTC

Mar-24 @ 00:00 UTC

BECMG 2317/2319 7000

Becoming

Becoming Conditions expected by Sat, Mar 23, 2019 @ 19:00 UTC

Wind
  • 050° at 10 KTS
Cloud Levels
  • Few at 2,000' AGL
  • Scattered at 3,000' AGL

Mar-23@
21:00 UTC

Mar-23 @ 21:00 UTC

Mar-24@
00:00 UTC

Mar-24 @ 00:00 UTC

PROB30 TEMPO 2321/2324 4000 BR BKN006

Temporary - 30% Likelihood

Temporary - 30% Likelihood during this time.

Conditions
Mist
Cloud Levels
  • Broken at 600' AGL